Accueil
METAR-TAF:

METAR-TAF

Aéroports :

Bruxelles, Belgique

Aéroport de Bruxelles. Zaventem

latitude: 50-54N, longitude: 004-32E, altitude: 55 m

Observation

Le bulletin a été fait il y a 28 minutes, à 09:50 UTC
Vent 7 kt de est/nord-est
Température 1°C
Humidité 64%
Pression 1023 hPa
Visibilité 10 km ou plus
pas de nuages en-dessous de 1500 mètres et pas de cumulonimbus.

METAR: EBBR 220950Z 07007KT CAVOK 01/M05 Q1023 NOSIG

Heure: 11:18 (10:18 UTC)

Prévision

Le bulletin a été fait il y a 5 heures et 16 minutes, à 05:02 UTC
Prévision valable du 22 à 06 UTC au 23 à 12 UTC
Vent 10 kt de est/nord-est
Visibilité: 7000 m
Probabilité 30% :
Temporairement
du 22 à 12 UTC au 22 à 16 UTC
Vent 15 kt de est/nord-est avec des rafales jusqu'à 25 kt

TAF: EBBR 220502Z 2206/2312 06010KT 7000 NSC PROB30 TEMPO 2212/2216 06015G25KT

Observations et prévisions météorologiques de plus de 4000 aéroports (messages METAR et TAF).

Les stations disponibles sont représentées par des disques jaunes et rouges sur la carte.

Passer la souris dessus pour voir le nom de la station.

Cliquer dessus pour voir les observations et prévisions météorologiques.

Pour changer de carte: cliquez sur les boutons verts avec une croix noire pour zoomer, sur le bouton vert avec un tiret pour effectuer un zoom arrière, ou sur les flèches vertes pour les cartes adjacentes.


METAR-TAF: